»·PEaware :: SWA1546 KSAN-KSMF

SWA1546 :: KSAN-KSMF

FLIGHT INFORMATION

Flight Status: Arrived
Operator:
Southwest Airlines
More flights by this operator :: More flights under this callsign
Pilot: Max H. (24278)
Aircraft: BOEING 737-800
(B738)
More flights by this aircraft type
Origin: KSAN San Diego Intl-Lindbergh
United States
Destination: KSMF Sacramento Intl
United States
More flights between these airports :: More routes between these airports
Route: +PADRZ2 EHF NURAY SUUTR3
File this flight plan on PilotEdge
Remarks:
Altitude:
(Current/Filed)
36,000ft
Speed:
(Current/Filed)
350kts
Departed: 11-Oct-20 04:37 PM
Arrived: 11-Oct-20 05:53 PM
Distance/Time
Traveled:
417nm/1:15
Distance/Time
To Go:
Arrived

Flight Plot

Page will automatically refresh every two minutes.

Flight plan parsing failed; only flown route is shown


Map Options




Map Legend


Flown Route
Filed Route
Departure Airport
Arrival Airport
Navaid (VOR, NDB)
Fix

Horizontal Profiles

Position Reports

Time Latitude Longitude Heading Altitude Ground
Speed
11-Oct-20 16:08 32.733484 -117.200590 262 27ft 0kts
11-Oct-20 16:09 32.733484 -117.200590 262 27ft 0kts
11-Oct-20 16:10 32.733484 -117.200590 262 27ft 0kts
11-Oct-20 16:11 32.733484 -117.200590 262 27ft 0kts
11-Oct-20 16:12 32.733484 -117.200590 262 27ft 0kts
11-Oct-20 16:13 32.733484 -117.200590 262 27ft 0kts
11-Oct-20 16:14 32.733484 -117.200590 262 27ft 0kts
11-Oct-20 16:15 32.733484 -117.200590 262 27ft 0kts
11-Oct-20 16:16 32.733484 -117.200590 262 27ft 0kts
11-Oct-20 16:17 32.733484 -117.200590 262 27ft 0kts
11-Oct-20 16:18 32.733484 -117.200590 262 27ft 0kts
11-Oct-20 16:19 32.733484 -117.200590 262 27ft 0kts
11-Oct-20 16:20 32.733484 -117.200590 262 27ft 0kts
11-Oct-20 16:21 32.733484 -117.200590 262 27ft 0kts
11-Oct-20 16:22 32.733484 -117.200590 262 27ft 0kts
11-Oct-20 16:23 32.733484 -117.200590 262 27ft 0kts
11-Oct-20 16:24 32.733484 -117.200590 262 27ft 0kts
11-Oct-20 16:25 32.733484 -117.200590 262 27ft 0kts
11-Oct-20 16:26 32.733484 -117.200590 262 27ft 0kts
11-Oct-20 16:27 32.733375 -117.200037 323 27ft 2kts
11-Oct-20 16:28 32.733023 -117.199964 13 27ft 0kts
11-Oct-20 16:29 32.733023 -117.199964 13 27ft 0kts
11-Oct-20 16:30 32.733043 -117.199959 13 27ft 1kts
11-Oct-20 16:31 32.734543 -117.197977 106 27ft 16kts
11-Oct-20 16:32 32.733105 -117.191985 110 27ft 26kts
11-Oct-20 16:33 32.730558 -117.181476 105 27ft 28kts
11-Oct-20 16:34 32.729537 -117.176967 84 27ft 0kts
11-Oct-20 16:35 32.730299 -117.176258 286 27ft 4kts
11-Oct-20 16:36 32.740320 -117.217767 297 1799ft 177kts
11-Oct-20 16:37 32.777116 -117.273798 301 4747ft 257kts
11-Oct-20 16:38 32.817921 -117.347615 309 9084ft 281kts
11-Oct-20 16:39 32.869922 -117.427300 309 11974ft 339kts
11-Oct-20 16:40 32.928768 -117.518726 309 14984ft 363kts
11-Oct-20 16:41 32.988725 -117.612312 309 14991ft 355kts
11-Oct-20 16:42 33.048956 -117.706393 309 14991ft 360kts
11-Oct-20 16:43 33.121982 -117.788788 322 15674ft 371kts
11-Oct-20 16:44 33.201412 -117.869456 323 19151ft 379kts
11-Oct-20 16:45 33.284144 -117.950044 324 22108ft 390kts
11-Oct-20 16:46 33.368285 -118.032122 324 24717ft 399kts
11-Oct-20 16:47 33.455586 -118.117565 323 27063ft 408kts
11-Oct-20 16:48 33.544441 -118.203445 327 29132ft 415kts
11-Oct-20 16:49 33.645498 -118.271514 334 30985ft 420kts
11-Oct-20 16:50 33.749875 -118.331227 335 33234ft 412kts
11-Oct-20 16:51 33.854252 -118.385145 337 35251ft 406kts
11-Oct-20 16:52 33.958782 -118.437087 340 36009ft 410kts
11-Oct-20 16:53 34.068015 -118.467043 349 36007ft 400kts
11-Oct-20 16:55 34.179118 -118.486278 350 35999ft 405kts
11-Oct-20 16:56 34.290393 -118.503841 351 35993ft 404kts
11-Oct-20 16:57 34.401778 -118.521135 351 35992ft 404kts
11-Oct-20 16:58 34.513327 -118.538409 351 35996ft 404kts
11-Oct-20 16:59 34.624926 -118.555713 351 36018ft 404kts
11-Oct-20 17:00 34.736474 -118.573048 351 36081ft 404kts
11-Oct-20 17:01 34.847673 -118.590377 351 36168ft 404kts
11-Oct-20 17:02 34.958602 -118.608179 346 36199ft 400kts
11-Oct-20 17:03 35.057522 -118.662111 321 36199ft 388kts
11-Oct-20 17:04 35.140785 -118.745999 319 36156ft 389kts
11-Oct-20 17:05 35.223965 -118.830684 319 36090ft 388kts
11-Oct-20 17:06 35.307483 -118.915731 319 36091ft 391kts
11-Oct-20 17:07 35.391244 -119.001206 319 36091ft 393kts
11-Oct-20 17:08 35.477746 -119.083280 326 36089ft 397kts
11-Oct-20 17:09 35.576430 -119.144728 332 36082ft 399kts
11-Oct-20 17:10 35.677584 -119.200388 333 36082ft 399kts
11-Oct-20 17:11 35.777152 -119.254295 333 36083ft 399kts
11-Oct-20 17:12 35.878828 -119.309254 333 36083ft 399kts
11-Oct-20 17:12 35.963447 -119.355059 333 36088ft 399kts
11-Oct-20 17:14 36.081950 -119.419366 333 36091ft 399kts
11-Oct-20 17:14 36.166717 -119.465492 333 36091ft 399kts
11-Oct-20 17:15 36.268234 -119.520874 333 36091ft 399kts
11-Oct-20 17:16 36.369821 -119.576454 333 36091ft 399kts
11-Oct-20 17:17 36.471089 -119.632018 333 36091ft 399kts
11-Oct-20 17:18 36.572590 -119.688096 331 36091ft 398kts
11-Oct-20 17:19 36.667384 -119.757693 325 36091ft 396kts
11-Oct-20 17:20 36.760724 -119.830693 325 36093ft 396kts
11-Oct-20 17:21 36.853263 -119.903314 325 36094ft 386kts
11-Oct-20 17:22 36.943765 -119.974586 325 36100ft 387kts
11-Oct-20 17:23 37.034635 -120.046320 324 35142ft 388kts
11-Oct-20 17:24 37.123804 -120.116876 324 32682ft 370kts
11-Oct-20 17:25 37.208359 -120.184055 325 30718ft 355kts
11-Oct-20 17:26 37.293723 -120.252119 325 28897ft 360kts
11-Oct-20 17:27 37.378076 -120.319981 326 26367ft 352kts
11-Oct-20 17:28 37.457576 -120.383823 326 24568ft 328kts
11-Oct-20 17:29 37.531990 -120.455868 322 22757ft 335kts
11-Oct-20 17:30 37.602502 -120.526853 322 21116ft 322kts
11-Oct-20 17:31 37.675490 -120.600050 322 20645ft 326kts
11-Oct-20 17:32 37.745383 -120.670223 322 18947ft 334kts
11-Oct-20 17:33 37.817175 -120.742833 322 17912ft 330kts
11-Oct-20 17:34 37.888527 -120.815034 322 16909ft 328kts
11-Oct-20 17:35 37.959501 -120.887030 322 15905ft 325kts
11-Oct-20 17:36 38.028902 -120.957636 322 14839ft 306kts
11-Oct-20 17:37 38.093674 -121.031953 312 13205ft 314kts
11-Oct-20 17:38 38.149210 -121.114379 312 11475ft 301kts
11-Oct-20 17:39 38.200791 -121.190635 312 10608ft 266kts
11-Oct-20 17:40 38.248313 -121.258563 314 9616ft 251kts
11-Oct-20 17:41 38.292035 -121.319841 313 9086ft 227kts
11-Oct-20 17:42 38.335650 -121.381163 313 7241ft 240kts
11-Oct-20 17:43 38.377820 -121.439481 316 6137ft 220kts
11-Oct-20 17:44 38.420208 -121.493033 316 5049ft 201kts
11-Oct-20 17:45 38.457007 -121.539993 316 4431ft 166kts
11-Oct-20 17:46 38.489041 -121.581472 316 3957ft 159kts
11-Oct-20 17:47 38.525097 -121.603749 359 3222ft 151kts
11-Oct-20 17:48 38.566729 -121.603269 360 2359ft 148kts
11-Oct-20 17:49 38.609011 -121.602601 359 1547ft 158kts
11-Oct-20 17:50 38.651394 -121.602107 359 676ft 153kts
11-Oct-20 17:51 38.692119 -121.601327 359 33ft 120kts
11-Oct-20 17:52 38.701272 -121.599193 90 33ft 0kts
11-Oct-20 17:53 38.699059 -121.598601 181 33ft 13kts
11-Oct-20 17:54 38.697001 -121.597394 91 33ft 11kts
11-Oct-20 17:55 38.696699 -121.593572 184 33ft 2kts
11-Oct-20 17:56 38.696294 -121.593595 181 33ft 0kts
11-Oct-20 17:57 38.696294 -121.593595 181 33ft 0kts

Navigation Log

Ident Type
Flight plan parsing failed, navigation log unavailable